createdAt,value
2022-11-20T00:02:22.279Z,16.8
2022-11-20T00:07:16.992Z,16.8
2022-11-20T00:12:11.860Z,16.8
2022-11-20T00:17:06.304Z,16.8
2022-11-20T00:22:01.012Z,16.7
2022-11-20T00:26:55.963Z,16.8
2022-11-20T00:31:50.416Z,16.7
2022-11-20T00:36:45.293Z,16.7
2022-11-20T00:41:39.444Z,16.7
2022-11-20T00:46:34.031Z,16.9
2022-11-20T00:51:28.618Z,16.8
2022-11-20T00:56:23.290Z,16.7
2022-11-20T01:01:18.234Z,16.8
2022-11-20T01:06:13.072Z,16.7
2022-11-20T01:11:07.857Z,16.7
2022-11-20T01:16:02.805Z,16.8
2022-11-20T01:20:56.817Z,16.8
2022-11-20T01:25:50.832Z,16.8
2022-11-20T01:30:44.908Z,16.8
2022-11-20T01:35:39.437Z,16.8
2022-11-20T01:40:33.717Z,16.8
2022-11-20T01:45:28.423Z,16.8
2022-11-20T01:50:23.240Z,16.8
2022-11-20T01:55:17.922Z,16.8
2022-11-20T02:00:11.663Z,16.7
2022-11-20T02:05:06.337Z,16.7
2022-11-20T02:10:00.896Z,16.7
2022-11-20T02:14:55.732Z,16.8
2022-11-20T02:19:50.355Z,16.7
2022-11-20T02:24:45.478Z,16.7
2022-11-20T02:29:40.007Z,16.7
2022-11-20T02:34:34.616Z,16.7
2022-11-20T02:39:29.156Z,16.7
2022-11-20T02:44:23.867Z,16.7
2022-11-20T02:49:18.574Z,16.7
2022-11-20T02:54:12.550Z,16.7
2022-11-20T02:59:07.121Z,16.6
2022-11-20T03:04:01.840Z,16.6
2022-11-20T03:08:56.442Z,16.6
2022-11-20T03:13:51.201Z,16.6
2022-11-20T03:18:45.682Z,16.7
2022-11-20T03:23:40.569Z,16.6
2022-11-20T03:28:35.245Z,16.6
2022-11-20T03:33:29.853Z,16.6
2022-11-20T03:38:24.303Z,16.6
2022-11-20T03:43:19.062Z,16.6
2022-11-20T03:48:13.747Z,16.5
2022-11-20T03:53:08.472Z,16.6
2022-11-20T03:58:03.500Z,16.6
2022-11-20T04:02:57.971Z,16.6
2022-11-20T04:07:52.491Z,16.6
2022-11-20T04:12:47.140Z,16.6
2022-11-20T04:17:41.896Z,16.6
2022-11-20T04:22:36.622Z,16.6
2022-11-20T04:27:31.316Z,16.5
2022-11-20T04:32:26.013Z,16.4
2022-11-20T04:37:20.890Z,16.5
2022-11-20T04:42:15.570Z,16.5
2022-11-20T04:47:10.100Z,16.5
2022-11-20T04:52:08.352Z,16.5
2022-11-20T04:57:02.497Z,16.4
2022-11-20T05:01:57.424Z,16.5
2022-11-20T05:06:52.261Z,16.4
2022-11-20T05:11:50.389Z,16.4
2022-11-20T05:16:41.740Z,16.5
2022-11-20T05:21:36.579Z,16.6
2022-11-20T05:26:31.599Z,16.8
2022-11-20T05:31:27.900Z,17.1
2022-11-20T05:36:20.591Z,17.4
2022-11-20T05:46:10.816Z,18.1
2022-11-20T05:51:06.078Z,18.5
2022-11-20T05:56:00.843Z,18.9
2022-11-20T06:00:55.950Z,19.1
2022-11-20T06:05:51.053Z,19.3
2022-11-20T06:10:45.927Z,19.5
2022-11-20T06:15:40.860Z,19.7
2022-11-20T06:20:39.310Z,19.8
2022-11-20T06:25:30.375Z,19.8
2022-11-20T06:30:25.119Z,19.9
2022-11-20T06:35:19.936Z,19.9
2022-11-20T06:40:14.649Z,19.8
2022-11-20T06:45:09.207Z,19.9
2022-11-20T06:50:04.374Z,19.9
2022-11-20T06:54:59.075Z,19.9
2022-11-20T06:59:53.711Z,19.9
2022-11-20T07:04:48.923Z,19.9
2022-11-20T07:09:43.670Z,20
2022-11-20T07:14:37.609Z,19.9
2022-11-20T07:19:32.313Z,19.8
2022-11-20T07:24:27.132Z,19.8
2022-11-20T07:29:22.183Z,19.9
2022-11-20T07:34:24.507Z,19.8
2022-11-20T07:39:18.939Z,19.7
2022-11-20T07:44:13.415Z,19.7
2022-11-20T07:49:08.592Z,19.8
2022-11-20T07:54:03.218Z,19.7
2022-11-20T07:58:57.426Z,19.7
2022-11-20T08:03:52.366Z,19.8
2022-11-20T08:08:47.366Z,20
2022-11-20T08:13:42.370Z,20
2022-11-20T08:18:37.233Z,20
2022-11-20T08:23:32.345Z,20.3
2022-11-20T08:28:27.355Z,20.5
2022-11-20T08:33:22.240Z,20.5
2022-11-20T08:38:16.197Z,20.5
2022-11-20T08:43:10.517Z,20.7
2022-11-20T08:48:05.416Z,20.7
2022-11-20T08:53:00.145Z,20.8
2022-11-20T08:57:54.580Z,19.8
2022-11-20T09:02:50.038Z,20
2022-11-20T09:07:44.920Z,20.2
2022-11-20T09:12:39.701Z,20.2
2022-11-20T09:17:34.719Z,20.1
2022-11-20T09:22:29.549Z,20.1
2022-11-20T09:27:24.245Z,20
2022-11-20T09:32:18.998Z,19.9
2022-11-20T09:37:12.475Z,19.6
2022-11-20T09:42:07.027Z,19.4
2022-11-20T09:47:01.823Z,19.4
2022-11-20T09:51:56.512Z,19.3
2022-11-20T09:56:51.197Z,19.2
2022-11-20T10:01:46.127Z,19.2
2022-11-20T10:06:41.105Z,19.2
2022-11-20T10:11:35.650Z,19.1
2022-11-20T10:16:29.715Z,19.2
2022-11-20T10:21:24.194Z,19.3
2022-11-20T10:26:18.825Z,19.2
2022-11-20T10:31:13.412Z,19
2022-11-20T10:36:08.058Z,19
2022-11-20T10:41:03.007Z,19
2022-11-20T10:45:57.863Z,19.1
2022-11-20T10:50:52.572Z,19.2
2022-11-20T10:55:47.623Z,19.3
2022-11-20T11:00:42.683Z,19.6
2022-11-20T11:05:37.628Z,19.8
2022-11-20T11:10:32.517Z,19.9
2022-11-20T11:15:27.408Z,20
2022-11-20T11:20:22.475Z,20.1
2022-11-20T11:25:17.299Z,20.2
2022-11-20T11:30:12.135Z,20.2
2022-11-20T11:35:06.901Z,20.3
2022-11-20T11:40:23.268Z,20.3
2022-11-20T11:44:56.627Z,20.3
2022-11-20T11:49:51.439Z,20.2
2022-11-20T11:54:45.642Z,20.2
2022-11-20T11:59:40.440Z,20.2
2022-11-20T12:04:35.078Z,20.2
2022-11-20T12:09:29.985Z,20.3
2022-11-20T12:14:23.928Z,20.2
2022-11-20T12:19:18.874Z,20.2
2022-11-20T12:24:13.924Z,20.2
2022-11-20T12:29:08.436Z,20.1
2022-11-20T12:34:02.976Z,20.1
2022-11-20T12:38:57.600Z,20
2022-11-20T12:43:52.589Z,19.9
2022-11-20T12:48:47.325Z,19.8
2022-11-20T12:53:42.231Z,19.7
2022-11-20T12:58:37.013Z,19.6
2022-11-20T13:03:31.834Z,19.6
2022-11-20T13:08:26.611Z,19.6
2022-11-20T13:13:21.608Z,19.4
2022-11-20T13:18:16.311Z,19.3
2022-11-20T13:23:10.509Z,19.2
2022-11-20T13:28:05.097Z,19.2
2022-11-20T13:32:59.784Z,19.2
2022-11-20T13:37:54.329Z,19.1
2022-11-20T13:42:48.940Z,19
2022-11-20T13:47:43.641Z,18.9
2022-11-20T13:52:37.741Z,18.8
2022-11-20T13:57:32.309Z,18.8
2022-11-20T14:02:27.483Z,18.6
2022-11-20T14:07:22.216Z,18.7
2022-11-20T14:12:17.083Z,19
2022-11-20T14:17:12.107Z,19.1
2022-11-20T14:22:07.088Z,19.3
2022-11-20T14:27:02.105Z,19.5
2022-11-20T14:31:56.972Z,19.7
2022-11-20T14:36:52.176Z,20
2022-11-20T14:41:47.203Z,20.2
2022-11-20T14:46:42.055Z,20.4
2022-11-20T14:51:36.995Z,20.5
2022-11-20T14:56:32.079Z,20.5
2022-11-20T15:01:27.049Z,20.5
2022-11-20T15:06:22.080Z,20.5
2022-11-20T15:11:16.898Z,20.5
2022-11-20T15:16:11.820Z,20.4
2022-11-20T15:21:06.629Z,20.4
2022-11-20T15:26:01.430Z,20.4
2022-11-20T15:30:56.229Z,20.4
2022-11-20T15:35:51.029Z,20.4
2022-11-20T15:40:45.931Z,20.3
2022-11-20T15:45:41.230Z,20.3
2022-11-20T15:50:35.152Z,20.2
2022-11-20T15:55:29.096Z,20.1
2022-11-20T16:00:23.938Z,20.1
2022-11-20T16:05:18.451Z,20
2022-11-20T16:10:13.446Z,19.9
2022-11-20T16:15:13.442Z,19.9
2022-11-20T16:20:02.962Z,19.8
2022-11-20T16:24:57.655Z,19.7
2022-11-20T16:29:52.228Z,19.6
2022-11-20T16:34:46.749Z,19.6
2022-11-20T16:39:41.404Z,19.6
2022-11-20T16:44:36.095Z,19.5
2022-11-20T16:49:30.922Z,19.4
2022-11-20T16:54:26.000Z,19.3
2022-11-20T16:59:20.293Z,19.2
2022-11-20T17:04:14.314Z,19.2
2022-11-20T17:09:08.720Z,19.1
2022-11-20T17:14:03.447Z,19.1
2022-11-20T17:19:02.472Z,18.9
2022-11-20T17:23:52.353Z,18.9
2022-11-20T17:28:47.093Z,18.9
2022-11-20T17:33:41.980Z,18.8
2022-11-20T17:38:36.963Z,18.9
2022-11-20T17:43:35.623Z,19.1
2022-11-20T17:48:26.649Z,19.2
2022-11-20T17:53:21.632Z,19.4
2022-11-20T17:58:16.451Z,19.6
2022-11-20T18:03:11.326Z,19.8
2022-11-20T18:08:06.381Z,20
2022-11-20T18:13:01.671Z,20.4
2022-11-20T18:17:56.483Z,20.6
2022-11-20T18:22:51.589Z,20.8
2022-11-20T18:27:45.814Z,20.9
2022-11-20T18:32:40.688Z,21
2022-11-20T18:37:35.293Z,21
2022-11-20T18:42:30.296Z,21.1
2022-11-20T18:47:25.054Z,21.1
2022-11-20T18:52:19.911Z,21.2
2022-11-20T18:57:14.839Z,21.3
2022-11-20T19:02:09.643Z,21.2
2022-11-20T19:07:04.350Z,21.1
2022-11-20T19:11:59.329Z,21.1
2022-11-20T19:16:54.169Z,21
2022-11-20T19:21:48.057Z,20.9
2022-11-20T19:26:43.009Z,20.9
2022-11-20T19:31:37.060Z,20.8
2022-11-20T19:36:32.067Z,20.7
2022-11-20T19:41:26.724Z,20.7
2022-11-20T19:46:21.871Z,20.7
2022-11-20T19:51:17.037Z,20.8
2022-11-20T19:56:11.764Z,20.7
2022-11-20T20:01:06.361Z,20.7
2022-11-20T20:06:01.014Z,20.7
2022-11-20T20:10:59.434Z,20.6
2022-11-20T20:15:50.367Z,20.5
2022-11-20T20:20:44.935Z,20.4
2022-11-20T20:25:39.646Z,20.3
2022-11-20T20:30:34.126Z,20.2
2022-11-20T20:35:28.344Z,20.2
2022-11-20T20:40:23.127Z,20.1
2022-11-20T20:45:18.154Z,20
2022-11-20T20:50:12.960Z,20
2022-11-20T20:55:07.434Z,19.9
2022-11-20T21:00:01.592Z,19.8
2022-11-20T21:04:56.502Z,19.8
2022-11-20T21:09:51.250Z,19.8
2022-11-20T21:14:46.240Z,19.8
2022-11-20T21:19:40.787Z,19.7
2022-11-20T21:24:35.551Z,19.7
2022-11-20T21:29:30.192Z,19.6
2022-11-20T21:34:24.679Z,19.6
2022-11-20T21:39:19.270Z,19.6
2022-11-20T21:49:09.093Z,19.5
2022-11-20T21:54:03.078Z,19.3
2022-11-20T21:58:57.462Z,19.2
2022-11-20T22:03:52.204Z,19.2
2022-11-20T22:08:47.158Z,19.1
2022-11-20T22:13:41.190Z,19
2022-11-20T22:18:36.259Z,19.3
2022-11-20T22:23:30.911Z,19.3
2022-11-20T22:28:25.680Z,19.3
2022-11-20T22:33:20.556Z,19.2
2022-11-20T22:38:14.410Z,19.2
2022-11-20T22:43:09.206Z,19.1
2022-11-20T22:48:03.942Z,19.1
2022-11-20T22:52:57.950Z,19
2022-11-20T22:57:52.830Z,18.9
2022-11-20T23:02:47.531Z,18.9
2022-11-20T23:07:42.289Z,18.9
2022-11-20T23:12:37.109Z,18.8
2022-11-20T23:17:30.962Z,18.7
2022-11-20T23:22:25.546Z,18.7
2022-11-20T23:27:22.094Z,18.6
2022-11-20T23:32:15.014Z,18.6
2022-11-20T23:37:09.786Z,18.5
2022-11-20T23:42:04.498Z,18.5
2022-11-20T23:46:59.024Z,18.4
2022-11-20T23:51:53.801Z,18.4
2022-11-20T23:56:48.544Z,18.4
